sensor_id;sensor_type;location;lat;lon;timestamp;pressure;altitude;pressure_sealevel;temperature;humidity
11190;BME280;5651;50.926;4.718;2023-02-11T00:01:48;103436.75;;;6.89;100.00
11190;BME280;5651;50.926;4.718;2023-02-11T00:04:14;103432.69;;;6.78;99.69
11190;BME280;5651;50.926;4.718;2023-02-11T00:06:40;103438.03;;;6.81;99.67
11190;BME280;5651;50.926;4.718;2023-02-11T00:09:06;103443.03;;;6.78;99.46
11190;BME280;5651;50.926;4.718;2023-02-11T00:11:32;103433.22;;;6.72;100.00
11190;BME280;5651;50.926;4.718;2023-02-11T00:13:59;103443.28;;;6.66;100.00
11190;BME280;5651;50.926;4.718;2023-02-11T00:16:26;103447.97;;;6.57;100.00
11190;BME280;5651;50.926;4.718;2023-02-11T00:18:52;103430.22;;;6.48;100.00
11190;BME280;5651;50.926;4.718;2023-02-11T00:21:23;103436.19;;;6.47;100.00
11190;BME280;5651;50.926;4.718;2023-02-11T00:23:50;103434.41;;;6.46;100.00
11190;BME280;5651;50.926;4.718;2023-02-11T00:26:16;103433.22;;;6.39;100.00
11190;BME280;5651;50.926;4.718;2023-02-11T00:28:43;103429.56;;;6.36;99.98
11190;BME280;5651;50.926;4.718;2023-02-11T00:31:10;103435.63;;;6.36;100.00
11190;BME280;5651;50.926;4.718;2023-02-11T00:33:35;103437.88;;;6.30;99.55
11190;BME280;5651;50.926;4.718;2023-02-11T00:36:06;103428.84;;;6.38;99.45
11190;BME280;5651;50.926;4.718;2023-02-11T00:38:32;103430.53;;;6.38;100.00
11190;BME280;5651;50.926;4.718;2023-02-11T00:40:58;103431.63;;;6.26;100.00
11190;BME280;5651;50.926;4.718;2023-02-11T00:43:24;103423.94;;;6.28;100.00
11190;BME280;5651;50.926;4.718;2023-02-11T00:45:50;103410.19;;;6.29;100.00
11190;BME280;5651;50.926;4.718;2023-02-11T00:48:15;103408.66;;;6.32;100.00
11190;BME280;5651;50.926;4.718;2023-02-11T00:50:41;103408.66;;;6.32;100.00
11190;BME280;5651;50.926;4.718;2023-02-11T00:53:07;103395.06;;;6.20;100.00
11190;BME280;5651;50.926;4.718;2023-02-11T00:55:33;103389.22;;;6.24;100.00
11190;BME280;5651;50.926;4.718;2023-02-11T00:57:59;103392.78;;;6.26;100.00
11190;BME280;5651;50.926;4.718;2023-02-11T01:00:25;103391.56;;;6.19;100.00
11190;BME280;5651;50.926;4.718;2023-02-11T01:02:51;103392.53;;;6.22;100.00
11190;BME280;5651;50.926;4.718;2023-02-11T01:05:18;103390.94;;;6.24;100.00
11190;BME280;5651;50.926;4.718;2023-02-11T01:07:43;103391.91;;;6.26;100.00
11190;BME280;5651;50.926;4.718;2023-02-11T01:10:10;103380.50;;;6.22;100.00
11190;BME280;5651;50.926;4.718;2023-02-11T01:12:37;103380.06;;;6.14;100.00
11190;BME280;5651;50.926;4.718;2023-02-11T01:15:04;103387.28;;;6.20;100.00
11190;BME280;5651;50.926;4.718;2023-02-11T01:17:31;103393.44;;;6.22;100.00
11190;BME280;5651;50.926;4.718;2023-02-11T01:19:56;103386.31;;;6.18;100.00
11190;BME280;5651;50.926;4.718;2023-02-11T01:22:22;103397.19;;;6.27;100.00
11190;BME280;5651;50.926;4.718;2023-02-11T01:24:48;103403.34;;;6.29;100.00
11190;BME280;5651;50.926;4.718;2023-02-11T01:27:13;103398.78;;;6.25;100.00
11190;BME280;5651;50.926;4.718;2023-02-11T01:29:39;103397.09;;;6.26;100.00
11190;BME280;5651;50.926;4.718;2023-02-11T01:32:05;103399.94;;;6.30;100.00
11190;BME280;5651;50.926;4.718;2023-02-11T01:34:30;103398.56;;;6.37;100.00
11190;BME280;5651;50.926;4.718;2023-02-11T01:36:59;103402.88;;;6.37;100.00
11190;BME280;5651;50.926;4.718;2023-02-11T01:39:26;103403.47;;;6.32;100.00
11190;BME280;5651;50.926;4.718;2023-02-11T01:41:52;103410.13;;;6.27;100.00
11190;BME280;5651;50.926;4.718;2023-02-11T01:44:37;103406.53;;;6.25;100.00
11190;BME280;5651;50.926;4.718;2023-02-11T01:47:04;103415.63;;;6.33;100.00
11190;BME280;5651;50.926;4.718;2023-02-11T01:49:33;103409.94;;;6.24;100.00
11190;BME280;5651;50.926;4.718;2023-02-11T01:54:34;103419.97;;;6.18;100.00
11190;BME280;5651;50.926;4.718;2023-02-11T01:57:22;103422.22;;;6.12;100.00
11190;BME280;5651;50.926;4.718;2023-02-11T02:05:15;103408.34;;;6.26;100.00
11190;BME280;5651;50.926;4.718;2023-02-11T02:07:59;103414.72;;;6.16;100.00
11190;BME280;5651;50.926;4.718;2023-02-11T02:10:26;103408.72;;;6.17;100.00
11190;BME280;5651;50.926;4.718;2023-02-11T02:12:53;103408.91;;;6.37;100.00
11190;BME280;5651;50.926;4.718;2023-02-11T02:15:20;103413.84;;;6.32;100.00
11190;BME280;5651;50.926;4.718;2023-02-11T02:17:56;103409.56;;;6.33;100.00
11190;BME280;5651;50.926;4.718;2023-02-11T02:23:28;103407.38;;;6.41;100.00
11190;BME280;5651;50.926;4.718;2023-02-11T02:35:39;103380.69;;;6.58;100.00
11190;BME280;5651;50.926;4.718;2023-02-11T02:38:15;103385.22;;;6.62;100.00
11190;BME280;5651;50.926;4.718;2023-02-11T02:40:52;103392.53;;;6.53;100.00
11190;BME280;5651;50.926;4.718;2023-02-11T02:43:20;103392.66;;;6.56;100.00
11190;BME280;5651;50.926;4.718;2023-02-11T02:45:47;103387.66;;;6.59;100.00
11190;BME280;5651;50.926;4.718;2023-02-11T02:48:30;103384.59;;;6.66;100.00
11190;BME280;5651;50.926;4.718;2023-02-11T02:56:48;103391.88;;;6.74;100.00
11190;BME280;5651;50.926;4.718;2023-02-11T02:59:23;103389.84;;;6.85;100.00
11190;BME280;5651;50.926;4.718;2023-02-11T03:02:15;103383.94;;;6.71;100.00
11190;BME280;5651;50.926;4.718;2023-02-11T03:05:07;103379.91;;;6.76;100.00
11190;BME280;5651;50.926;4.718;2023-02-11T03:07:42;103389.03;;;6.86;100.00
11190;BME280;5651;50.926;4.718;2023-02-11T03:10:24;103383.13;;;6.88;100.00
11190;BME280;5651;50.926;4.718;2023-02-11T03:12:52;103386.59;;;6.89;100.00
11190;BME280;5651;50.926;4.718;2023-02-11T03:15:20;103378.50;;;6.82;100.00
11190;BME280;5651;50.926;4.718;2023-02-11T03:17:48;103363.50;;;6.93;100.00
11190;BME280;5651;50.926;4.718;2023-02-11T03:20:18;103367.16;;;6.97;100.00
11190;BME280;5651;50.926;4.718;2023-02-11T03:22:52;103361.88;;;6.95;100.00
11190;BME280;5651;50.926;4.718;2023-02-11T03:25:21;103356.72;;;6.95;100.00
11190;BME280;5651;50.926;4.718;2023-02-11T03:28:00;103360.34;;;6.99;100.00
11190;BME280;5651;50.926;4.718;2023-02-11T03:30:37;103359.78;;;6.88;100.00
11190;BME280;5651;50.926;4.718;2023-02-11T03:33:11;103355.97;;;6.98;100.00
11190;BME280;5651;50.926;4.718;2023-02-11T03:35:43;103357.44;;;6.93;100.00
11190;BME280;5651;50.926;4.718;2023-02-11T03:38:14;103354.75;;;6.91;100.00
11190;BME280;5651;50.926;4.718;2023-02-11T03:40:43;103359.00;;;6.89;100.00
11190;BME280;5651;50.926;4.718;2023-02-11T03:43:11;103361.88;;;6.95;100.00
11190;BME280;5651;50.926;4.718;2023-02-11T03:45:42;103362.53;;;6.91;100.00
11190;BME280;5651;50.926;4.718;2023-02-11T03:48:14;103366.66;;;6.88;100.00
11190;BME280;5651;50.926;4.718;2023-02-11T03:50:41;103374.84;;;6.95;100.00
11190;BME280;5651;50.926;4.718;2023-02-11T03:53:09;103377.44;;;6.95;100.00
11190;BME280;5651;50.926;4.718;2023-02-11T03:55:39;103372.56;;;7.02;100.00
11190;BME280;5651;50.926;4.718;2023-02-11T03:58:05;103363.66;;;6.96;100.00
11190;BME280;5651;50.926;4.718;2023-02-11T04:00:34;103368.28;;;7.02;100.00
11190;BME280;5651;50.926;4.718;2023-02-11T04:03:01;103358.38;;;7.11;100.00
11190;BME280;5651;50.926;4.718;2023-02-11T04:05:27;103366.13;;;7.11;100.00
11190;BME280;5651;50.926;4.718;2023-02-11T04:07:53;103373.78;;;7.08;100.00
11190;BME280;5651;50.926;4.718;2023-02-11T04:10:20;103377.56;;;7.15;100.00
11190;BME280;5651;50.926;4.718;2023-02-11T04:12:45;103371.25;;;7.10;100.00
11190;BME280;5651;50.926;4.718;2023-02-11T04:15:11;103373.28;;;7.16;100.00
11190;BME280;5651;50.926;4.718;2023-02-11T04:17:37;103376.00;;;7.19;100.00
11190;BME280;5651;50.926;4.718;2023-02-11T04:20:03;103374.16;;;7.16;100.00
11190;BME280;5651;50.926;4.718;2023-02-11T04:22:29;103378.84;;;7.23;100.00
11190;BME280;5651;50.926;4.718;2023-02-11T04:24:55;103369.22;;;7.21;100.00
11190;BME280;5651;50.926;4.718;2023-02-11T04:27:21;103378.78;;;7.22;100.00
11190;BME280;5651;50.926;4.718;2023-02-11T04:29:47;103376.34;;;7.25;100.00
11190;BME280;5651;50.926;4.718;2023-02-11T04:32:13;103374.38;;;7.21;100.00
11190;BME280;5651;50.926;4.718;2023-02-11T04:34:39;103376.25;;;7.23;100.00
11190;BME280;5651;50.926;4.718;2023-02-11T04:37:05;103378.09;;;7.26;100.00
11190;BME280;5651;50.926;4.718;2023-02-11T04:39:31;103382.91;;;7.18;100.00
11190;BME280;5651;50.926;4.718;2023-02-11T04:41:56;103378.22;;;7.11;100.00
11190;BME280;5651;50.926;4.718;2023-02-11T04:44:22;103369.66;;;7.12;100.00
11190;BME280;5651;50.926;4.718;2023-02-11T04:46:48;103366.25;;;7.13;100.00
11190;BME280;5651;50.926;4.718;2023-02-11T04:49:15;103366.25;;;7.13;100.00
11190;BME280;5651;50.926;4.718;2023-02-11T04:51:40;103359.63;;;7.20;100.00
11190;BME280;5651;50.926;4.718;2023-02-11T04:54:06;103366.06;;;7.10;100.00
11190;BME280;5651;50.926;4.718;2023-02-11T04:56:33;103374.59;;;7.07;100.00
11190;BME280;5651;50.926;4.718;2023-02-11T04:58:58;103371.50;;;7.14;100.00
11190;BME280;5651;50.926;4.718;2023-02-11T05:01:24;103371.06;;;7.23;100.00
11190;BME280;5651;50.926;4.718;2023-02-11T05:03:50;103358.66;;;7.18;100.00
11190;BME280;5651;50.926;4.718;2023-02-11T05:06:16;103352.03;;;7.23;100.00
11190;BME280;5651;50.926;4.718;2023-02-11T05:08:42;103356.47;;;7.25;100.00
11190;BME280;5651;50.926;4.718;2023-02-11T05:11:14;103351.88;;;7.20;100.00
11190;BME280;5651;50.926;4.718;2023-02-11T05:13:40;103357.06;;;7.20;100.00
11190;BME280;5651;50.926;4.718;2023-02-11T05:16:09;103359.13;;;7.27;100.00
11190;BME280;5651;50.926;4.718;2023-02-11T05:18:42;103356.53;;;7.27;100.00
11190;BME280;5651;50.926;4.718;2023-02-11T05:21:10;103354.56;;;7.21;100.00
11190;BME280;5651;50.926;4.718;2023-02-11T05:23:36;103349.50;;;7.24;100.00
11190;BME280;5651;50.926;4.718;2023-02-11T05:26:02;103349.00;;;7.32;100.00
11190;BME280;5651;50.926;4.718;2023-02-11T05:28:28;103348.63;;;7.24;100.00
11190;BME280;5651;50.926;4.718;2023-02-11T05:30:54;103336.41;;;7.21;100.00
11190;BME280;5651;50.926;4.718;2023-02-11T05:33:21;103336.53;;;7.24;100.00
11190;BME280;5651;50.926;4.718;2023-02-11T05:35:46;103335.91;;;7.28;100.00
11190;BME280;5651;50.926;4.718;2023-02-11T05:38:12;103337.03;;;7.17;100.00
11190;BME280;5651;50.926;4.718;2023-02-11T05:40:38;103338.59;;;7.13;100.00
11190;BME280;5651;50.926;4.718;2023-02-11T05:43:04;103336.47;;;7.23;100.00
11190;BME280;5651;50.926;4.718;2023-02-11T05:45:30;103339.06;;;7.23;100.00
11190;BME280;5651;50.926;4.718;2023-02-11T05:47:56;103346.03;;;7.24;100.00
11190;BME280;5651;50.926;4.718;2023-02-11T05:50:22;103352.91;;;7.23;100.00
11190;BME280;5651;50.926;4.718;2023-02-11T05:52:48;103349.28;;;7.20;100.00
11190;BME280;5651;50.926;4.718;2023-02-11T05:55:14;103353.22;;;7.29;100.00
11190;BME280;5651;50.926;4.718;2023-02-11T05:57:40;103351.44;;;7.28;100.00
11190;BME280;5651;50.926;4.718;2023-02-11T06:00:06;103353.00;;;7.25;100.00
11190;BME280;5651;50.926;4.718;2023-02-11T06:02:31;103353.44;;;7.34;100.00
11190;BME280;5651;50.926;4.718;2023-02-11T06:04:58;103352.63;;;7.35;100.00
11190;BME280;5651;50.926;4.718;2023-02-11T06:07:24;103355.97;;;7.33;100.00
11190;BME280;5651;50.926;4.718;2023-02-11T06:09:49;103356.72;;;7.30;100.00
11190;BME280;5651;50.926;4.718;2023-02-11T06:12:15;103359.31;;;7.30;100.00
11190;BME280;5651;50.926;4.718;2023-02-11T06:14:41;103359.59;;;7.36;100.00
11190;BME280;5651;50.926;4.718;2023-02-11T06:17:06;103346.56;;;7.35;100.00
11190;BME280;5651;50.926;4.718;2023-02-11T06:19:32;103341.16;;;7.30;100.00
11190;BME280;5651;50.926;4.718;2023-02-11T06:21:58;103341.22;;;7.32;100.00
11190;BME280;5651;50.926;4.718;2023-02-11T06:24:24;103344.38;;;7.26;100.00
11190;BME280;5651;50.926;4.718;2023-02-11T06:26:50;103345.44;;;7.29;100.00
11190;BME280;5651;50.926;4.718;2023-02-11T06:29:16;103338.63;;;7.32;100.00
11190;BME280;5651;50.926;4.718;2023-02-11T06:31:41;103331.88;;;7.35;100.00
11190;BME280;5651;50.926;4.718;2023-02-11T06:34:08;103334.91;;;7.26;100.00
11190;BME280;5651;50.926;4.718;2023-02-11T06:36:35;103344.78;;;7.34;100.00
11190;BME280;5651;50.926;4.718;2023-02-11T06:39:02;103348.94;;;7.30;100.00
11190;BME280;5651;50.926;4.718;2023-02-11T06:41:28;103354.06;;;7.28;100.00
11190;BME280;5651;50.926;4.718;2023-02-11T06:43:54;103356.19;;;7.19;100.00
11190;BME280;5651;50.926;4.718;2023-02-11T06:46:20;103350.78;;;7.33;100.00
11190;BME280;5651;50.926;4.718;2023-02-11T06:48:46;103356.72;;;7.30;100.00
11190;BME280;5651;50.926;4.718;2023-02-11T06:51:13;103353.44;;;7.34;100.00
11190;BME280;5651;50.926;4.718;2023-02-11T06:53:44;103351.53;;;7.30;100.00
11190;BME280;5651;50.926;4.718;2023-02-11T06:56:13;103353.38;;;7.33;100.00
11190;BME280;5651;50.926;4.718;2023-02-11T06:58:39;103350.53;;;7.28;100.00
11190;BME280;5651;50.926;4.718;2023-02-11T07:01:06;103352.56;;;7.34;100.00
11190;BME280;5651;50.926;4.718;2023-02-11T07:03:37;103351.97;;;7.39;100.00
11190;BME280;5651;50.926;4.718;2023-02-11T07:06:04;103343.88;;;7.33;100.00
11190;BME280;5651;50.926;4.718;2023-02-11T07:08:34;103342.25;;;7.35;100.00
11190;BME280;5651;50.926;4.718;2023-02-11T07:11:00;103348.34;;;7.36;100.00
11190;BME280;5651;50.926;4.718;2023-02-11T07:13:26;103343.47;;;7.42;100.00
11190;BME280;5651;50.926;4.718;2023-02-11T07:15:52;103351.88;;;7.38;100.00
11190;BME280;5651;50.926;4.718;2023-02-11T07:18:17;103350.59;;;7.29;100.00
11190;BME280;5651;50.926;4.718;2023-02-11T07:20:43;103352.84;;;7.22;100.00
11190;BME280;5651;50.926;4.718;2023-02-11T07:23:09;103361.38;;;7.37;100.00
11190;BME280;5651;50.926;4.718;2023-02-11T07:25:35;103368.41;;;7.40;100.00
11190;BME280;5651;50.926;4.718;2023-02-11T07:28:02;103378.06;;;7.42;100.00
11190;BME280;5651;50.926;4.718;2023-02-11T07:30:28;103377.19;;;7.42;100.00
11190;BME280;5651;50.926;4.718;2023-02-11T07:32:55;103376.28;;;7.41;100.00
11190;BME280;5651;50.926;4.718;2023-02-11T07:35:21;103374.00;;;7.48;100.00
11190;BME280;5651;50.926;4.718;2023-02-11T07:37:46;103375.84;;;7.50;100.00
11190;BME280;5651;50.926;4.718;2023-02-11T07:40:12;103378.59;;;7.53;100.00
11190;BME280;5651;50.926;4.718;2023-02-11T07:42:38;103385.44;;;7.51;100.00
11190;BME280;5651;50.926;4.718;2023-02-11T07:45:06;103385.84;;;7.42;100.00
11190;BME280;5651;50.926;4.718;2023-02-11T07:47:33;103391.09;;;7.44;100.00
11190;BME280;5651;50.926;4.718;2023-02-11T07:50:00;103403.66;;;7.53;100.00
11190;BME280;5651;50.926;4.718;2023-02-11T07:52:28;103399.56;;;7.58;100.00
11190;BME280;5651;50.926;4.718;2023-02-11T07:54:55;103395.41;;;7.61;100.00
11190;BME280;5651;50.926;4.718;2023-02-11T07:57:20;103403.66;;;7.53;100.00
11190;BME280;5651;50.926;4.718;2023-02-11T07:59:46;103409.31;;;7.62;100.00
11190;BME280;5651;50.926;4.718;2023-02-11T08:02:12;103410.63;;;7.54;100.00
11190;BME280;5651;50.926;4.718;2023-02-11T08:04:38;103415.94;;;7.57;100.00
11190;BME280;5651;50.926;4.718;2023-02-11T08:07:03;103416.34;;;7.65;100.00
11190;BME280;5651;50.926;4.718;2023-02-11T08:09:29;103413.38;;;7.75;100.00
11190;BME280;5651;50.926;4.718;2023-02-11T08:11:55;103420.56;;;7.63;100.00
11190;BME280;5651;50.926;4.718;2023-02-11T08:14:21;103421.25;;;7.58;100.00
11190;BME280;5651;50.926;4.718;2023-02-11T08:16:47;103425.75;;;7.63;100.00
11190;BME280;5651;50.926;4.718;2023-02-11T08:19:14;103430.72;;;7.58;100.00
11190;BME280;5651;50.926;4.718;2023-02-11T08:21:41;103432.03;;;7.68;100.00
11190;BME280;5651;50.926;4.718;2023-02-11T08:24:07;103429.31;;;7.65;100.00
11190;BME280;5651;50.926;4.718;2023-02-11T08:26:34;103432.97;;;7.68;100.00
11190;BME280;5651;50.926;4.718;2023-02-11T08:29:04;103432.28;;;7.72;100.00
11190;BME280;5651;50.926;4.718;2023-02-11T08:31:33;103432.28;;;7.90;100.00
11190;BME280;5651;50.926;4.718;2023-02-11T08:33:59;103423.56;;;7.88;100.00
11190;BME280;5651;50.926;4.718;2023-02-11T08:36:34;103428.97;;;7.93;100.00
11190;BME280;5651;50.926;4.718;2023-02-11T08:39:06;103427.78;;;7.86;100.00
11190;BME280;5651;50.926;4.718;2023-02-11T08:41:34;103428.75;;;7.88;100.00
11190;BME280;5651;50.926;4.718;2023-02-11T08:44:00;103433.03;;;7.88;100.00
11190;BME280;5651;50.926;4.718;2023-02-11T08:46:26;103437.81;;;7.97;100.00
11190;BME280;5651;50.926;4.718;2023-02-11T08:48:52;103446.41;;;7.96;100.00
11190;BME280;5651;50.926;4.718;2023-02-11T08:51:21;103452.00;;;7.87;100.00
11190;BME280;5651;50.926;4.718;2023-02-11T08:53:48;103451.44;;;7.92;100.00
11190;BME280;5651;50.926;4.718;2023-02-11T08:56:14;103449.00;;;7.96;100.00
11190;BME280;5651;50.926;4.718;2023-02-11T08:58:41;103457.44;;;7.91;100.00
11190;BME280;5651;50.926;4.718;2023-02-11T09:01:21;103451.72;;;7.99;100.00
11190;BME280;5651;50.926;4.718;2023-02-11T09:03:47;103465.38;;;7.95;100.00
11190;BME280;5651;50.926;4.718;2023-02-11T09:06:13;103465.84;;;8.04;100.00
11190;BME280;5651;50.926;4.718;2023-02-11T09:08:43;103468.72;;;8.10;100.00
11190;BME280;5651;50.926;4.718;2023-02-11T09:11:10;103460.66;;;8.04;100.00
11190;BME280;5651;50.926;4.718;2023-02-11T09:13:36;103462.03;;;8.15;100.00
11190;BME280;5651;50.926;4.718;2023-02-11T09:16:03;103462.72;;;8.11;100.00
11190;BME280;5651;50.926;4.718;2023-02-11T09:18:30;103452.41;;;8.13;100.00
11190;BME280;5651;50.926;4.718;2023-02-11T09:21:07;103458.47;;;8.13;100.00
11190;BME280;5651;50.926;4.718;2023-02-11T09:23:34;103463.75;;;8.15;100.00
11190;BME280;5651;50.926;4.718;2023-02-11T09:26:20;103467.75;;;8.08;100.00
11190;BME280;5651;50.926;4.718;2023-02-11T09:28:46;103465.09;;;8.06;100.00
11190;BME280;5651;50.926;4.718;2023-02-11T09:31:21;103466.59;;;8.19;100.00
11190;BME280;5651;50.926;4.718;2023-02-11T09:33:49;103464.06;;;8.21;100.00
11190;BME280;5651;50.926;4.718;2023-02-11T09:36:18;103453.94;;;8.27;100.00
11190;BME280;5651;50.926;4.718;2023-02-11T09:38:45;103454.16;;;8.32;100.00
11190;BME280;5651;50.926;4.718;2023-02-11T09:43:57;103462.56;;;8.26;100.00
11190;BME280;5651;50.926;4.718;2023-02-11T09:46:25;103473.75;;;8.25;100.00
11190;BME280;5651;50.926;4.718;2023-02-11T09:48:55;103471.16;;;8.25;100.00
11190;BME280;5651;50.926;4.718;2023-02-11T09:51:44;103471.53;;;8.33;100.00
11190;BME280;5651;50.926;4.718;2023-02-11T09:54:19;103475.53;;;8.26;100.00
11190;BME280;5651;50.926;4.718;2023-02-11T09:56:47;103467.28;;;8.35;100.00
11190;BME280;5651;50.926;4.718;2023-02-11T09:59:15;103467.50;;;8.39;100.00
11190;BME280;5651;50.926;4.718;2023-02-11T10:23:20;103486.13;;;8.67;100.00
11190;BME280;5651;50.926;4.718;2023-02-11T10:25:52;103489.63;;;8.67;100.00
11190;BME280;5651;50.926;4.718;2023-02-11T10:28:22;103492.91;;;8.63;100.00
11190;BME280;5651;50.926;4.718;2023-02-11T10:35:49;103496.34;;;8.82;100.00
11190;BME280;5651;50.926;4.718;2023-02-11T10:38:15;103497.38;;;8.85;100.00
11190;BME280;5651;50.926;4.718;2023-02-11T10:40:40;103502.09;;;8.94;100.00
11190;BME280;5651;50.926;4.718;2023-02-11T10:43:10;103512.72;;;8.99;100.00
11190;BME280;5651;50.926;4.718;2023-02-11T10:45:42;103504.59;;;8.91;100.00
11190;BME280;5651;50.926;4.718;2023-02-11T10:53:38;103490.88;;;8.95;100.00
11190;BME280;5651;50.926;4.718;2023-02-11T10:56:06;103492.94;;;9.02;100.00
11190;BME280;5651;50.926;4.718;2023-02-11T10:58:53;103494.78;;;9.05;100.00
11190;BME280;5651;50.926;4.718;2023-02-11T11:01:20;103500.34;;;9.13;100.00
11190;BME280;5651;50.926;4.718;2023-02-11T11:03:48;103500.13;;;9.08;100.00
11190;BME280;5651;50.926;4.718;2023-02-11T11:06:14;103495.69;;;9.06;100.00
11190;BME280;5651;50.926;4.718;2023-02-11T11:08:45;103498.78;;;9.16;100.00
11190;BME280;5651;50.926;4.718;2023-02-11T11:11:13;103497.66;;;9.11;100.00
11190;BME280;5651;50.926;4.718;2023-02-11T11:13:41;103503.66;;;9.10;100.00
11190;BME280;5651;50.926;4.718;2023-02-11T11:16:21;103495.97;;;9.12;100.00
11190;BME280;5651;50.926;4.718;2023-02-11T11:18:50;103501.22;;;9.13;100.00
11190;BME280;5651;50.926;4.718;2023-02-11T11:21:21;103504.03;;;9.18;100.00
11190;BME280;5651;50.926;4.718;2023-02-11T11:23:50;103508.28;;;9.16;100.00
11190;BME280;5651;50.926;4.718;2023-02-11T11:26:17;103507.16;;;9.30;100.00
11190;BME280;5651;50.926;4.718;2023-02-11T11:31:34;103493.41;;;9.33;100.00
11190;BME280;5651;50.926;4.718;2023-02-11T11:34:23;103496.50;;;9.24;100.00
11190;BME280;5651;50.926;4.718;2023-02-11T11:36:51;103497.41;;;9.25;100.00
11190;BME280;5651;50.926;4.718;2023-02-11T11:39:20;103499.28;;;9.29;100.00
11190;BME280;5651;50.926;4.718;2023-02-11T11:41:51;103496.75;;;9.30;100.00
11190;BME280;5651;50.926;4.718;2023-02-11T11:44:33;103492.31;;;9.28;100.00
11190;BME280;5651;50.926;4.718;2023-02-11T11:49:48;103492.66;;;9.35;100.00
11190;BME280;5651;50.926;4.718;2023-02-11T11:54:54;103501.09;;;9.30;100.00
11190;BME280;5651;50.926;4.718;2023-02-11T11:57:25;103491.50;;;9.29;100.00
11190;BME280;5651;50.926;4.718;2023-02-11T11:59:54;103489.03;;;9.32;100.00
11190;BME280;5651;50.926;4.718;2023-02-11T12:18:12;103501.88;;;9.48;100.00
11190;BME280;5651;50.926;4.718;2023-02-11T12:26:31;103500.38;;;9.54;100.00
11190;BME280;5651;50.926;4.718;2023-02-11T12:37:31;103488.63;;;9.63;100.00
11190;BME280;5651;50.926;4.718;2023-02-11T12:55:59;103503.38;;;9.63;100.00
11190;BME280;5651;50.926;4.718;2023-02-11T12:58:31;103499.91;;;9.64;100.00
11190;BME280;5651;50.926;4.718;2023-02-11T13:01:07;103502.03;;;9.73;100.00
11190;BME280;5651;50.926;4.718;2023-02-11T13:03:39;103489.78;;;9.70;100.00
11190;BME280;5651;50.926;4.718;2023-02-11T13:06:17;103477.19;;;9.60;100.00
11190;BME280;5651;50.926;4.718;2023-02-11T13:08:51;103473.88;;;9.64;100.00
11190;BME280;5651;50.926;4.718;2023-02-11T13:11:26;103485.88;;;9.60;100.00
11190;BME280;5651;50.926;4.718;2023-02-11T13:16:40;103478.66;;;9.74;100.00
11190;BME280;5651;50.926;4.718;2023-02-11T13:19:35;103472.25;;;9.66;100.00
11190;BME280;5651;50.926;4.718;2023-02-11T13:22:19;103471.38;;;9.65;100.00
11190;BME280;5651;50.926;4.718;2023-02-11T13:30:12;103472.31;;;9.67;100.00
11190;BME280;5651;50.926;4.718;2023-02-11T13:33:16;103469.06;;;9.73;100.00
11190;BME280;5651;50.926;4.718;2023-02-11T13:35:47;103459.38;;;9.69;100.00
11190;BME280;5651;50.926;4.718;2023-02-11T13:41:03;103455.22;;;9.74;100.00
11190;BME280;5651;50.926;4.718;2023-02-11T13:43:33;103461.44;;;9.78;100.00
11190;BME280;5651;50.926;4.718;2023-02-11T13:46:06;103461.88;;;9.89;100.00
11190;BME280;5651;50.926;4.718;2023-02-11T13:48:52;103461.44;;;9.99;100.00
11190;BME280;5651;50.926;4.718;2023-02-11T13:51:37;103472.44;;;9.92;100.00
11190;BME280;5651;50.926;4.718;2023-02-11T13:54:04;103469.75;;;9.90;100.00
11190;BME280;5651;50.926;4.718;2023-02-11T13:56:33;103462.59;;;9.85;100.00
11190;BME280;5651;50.926;4.718;2023-02-11T13:59:02;103466.84;;;9.82;100.00
11190;BME280;5651;50.926;4.718;2023-02-11T14:04:33;103464.31;;;9.84;100.00
11190;BME280;5651;50.926;4.718;2023-02-11T14:07:29;103465.22;;;9.85;100.00
11190;BME280;5651;50.926;4.718;2023-02-11T14:13:21;103465.88;;;9.80;100.00
11190;BME280;5651;50.926;4.718;2023-02-11T14:15:48;103465.84;;;9.79;100.00
11190;BME280;5651;50.926;4.718;2023-02-11T14:32:24;103467.94;;;9.66;100.00
11190;BME280;5651;50.926;4.718;2023-02-11T14:42:46;103465.06;;;9.60;100.00
11190;BME280;5651;50.926;4.718;2023-02-11T14:45:20;103467.56;;;9.57;100.00
11190;BME280;5651;50.926;4.718;2023-02-11T14:48:12;103462.47;;;9.60;100.00
11190;BME280;5651;50.926;4.718;2023-02-11T14:50:46;103453.91;;;9.63;100.00
11190;BME280;5651;50.926;4.718;2023-02-11T14:53:14;103463.75;;;9.70;100.00
11190;BME280;5651;50.926;4.718;2023-02-11T14:55:42;103461.78;;;9.64;100.00
11190;BME280;5651;50.926;4.718;2023-02-11T14:58:24;103461.53;;;9.58;100.00
11190;BME280;5651;50.926;4.718;2023-02-11T15:01:06;103469.38;;;9.60;100.00
11190;BME280;5651;50.926;4.718;2023-02-11T15:03:48;103465.78;;;9.56;100.00
11190;BME280;5651;50.926;4.718;2023-02-11T15:06:18;103471.16;;;9.61;100.00
11190;BME280;5651;50.926;4.718;2023-02-11T15:08:57;103470.91;;;9.55;100.00
11190;BME280;5651;50.926;4.718;2023-02-11T15:11:27;103472.66;;;9.56;100.00
11190;BME280;5651;50.926;4.718;2023-02-11T15:13:55;103472.25;;;9.66;100.00
11190;BME280;5651;50.926;4.718;2023-02-11T15:16:23;103467.47;;;9.56;100.00
11190;BME280;5651;50.926;4.718;2023-02-11T15:18:53;103474.25;;;9.52;100.00
11190;BME280;5651;50.926;4.718;2023-02-11T15:21:25;103470.63;;;9.48;100.00
11190;BME280;5651;50.926;4.718;2023-02-11T15:24:00;103481.94;;;9.49;100.00
11190;BME280;5651;50.926;4.718;2023-02-11T15:26:27;103475.47;;;9.60;100.00
11190;BME280;5651;50.926;4.718;2023-02-11T15:28:53;103477.34;;;9.63;100.00
11190;BME280;5651;50.926;4.718;2023-02-11T15:31:22;103479.53;;;9.54;100.00
11190;BME280;5651;50.926;4.718;2023-02-11T15:33:49;103482.78;;;9.48;100.00
11190;BME280;5651;50.926;4.718;2023-02-11T15:36:16;103487.78;;;9.43;100.00
11190;BME280;5651;50.926;4.718;2023-02-11T15:38:43;103480.78;;;9.42;100.00
11190;BME280;5651;50.926;4.718;2023-02-11T15:41:35;103488.03;;;9.49;100.00
11190;BME280;5651;50.926;4.718;2023-02-11T15:44:01;103480.22;;;9.49;100.00
11190;BME280;5651;50.926;4.718;2023-02-11T15:46:34;103484.34;;;9.44;100.00